Time;durP1;ratioP1;P1;durP2;ratioP2;P2;SDS_P1;SDS_P2;PMS_P1;PMS_P2;Temp;Humidity;BMP_temperature;BMP_pressure;BME280_temperature;BME280_humidity;BME280_pressure;Samples;Min_cycle;Max_cycle;Signal;HPM_P1;HPM_P2
2022/05/13 00:01:48;;;;;;;2.27;1.43;;;8.90;99.90;;;;;;6229907;23;20173;-89
2022/05/13 00:04:32;;;;;;;2.97;1.07;;;8.90;99.90;;;;;;6225258;23;20172;-90
2022/05/13 00:07:04;;;;;;;1.00;0.83;;;9.10;99.90;;;;;;6222934;23;20545;-90
2022/05/13 00:12:27;;;;;;;2.87;1.33;;;9.10;99.90;;;;;;6202193;23;20207;-90
2022/05/13 00:15:00;;;;;;;9.63;2.00;;;9.40;99.90;;;;;;6227183;23;20178;-90
2022/05/13 00:17:33;;;;;;;1.40;1.30;;;9.70;99.90;;;;;;6235327;23;20172;-91
2022/05/13 00:20:06;;;;;;;1.57;1.20;;;9.60;99.90;;;;;;6233444;23;20235;-91
2022/05/13 00:22:44;;;;;;;2.97;1.90;;;9.80;99.90;;;;;;6227800;23;20169;-91
2022/05/13 00:25:18;;;;;;;2.97;1.20;;;9.90;99.90;;;;;;6226202;23;20164;-92
2022/05/13 00:27:59;;;;;;;2.97;1.10;;;10.10;99.90;;;;;;6228322;23;20192;-90
2022/05/13 00:30:33;;;;;;;2.30;1.40;;;10.10;99.90;;;;;;6229665;23;20172;-90
2022/05/13 00:33:06;;;;;;;5.03;4.63;;;10.00;99.90;;;;;;6225338;23;20172;-88
2022/05/13 00:35:39;;;;;;;2.80;1.33;;;9.80;99.90;;;;;;6229996;23;20223;-90
2022/05/13 00:38:11;;;;;;;1.70;1.10;;;9.80;99.90;;;;;;6241808;23;20203;-90
2022/05/13 00:40:45;;;;;;;2.00;1.10;;;9.80;99.90;;;;;;6242603;23;20153;-90
2022/05/13 00:43:45;;;;;;;1.80;1.20;;;9.90;99.90;;;;;;6242262;23;20241;-92
2022/05/13 00:46:21;;;;;;;1.57;1.30;;;10.10;99.90;;;;;;6241884;23;20212;-91
2022/05/13 00:48:54;;;;;;;3.47;1.30;;;10.50;99.90;;;;;;6240571;23;20163;-90
2022/05/13 00:51:30;;;;;;;3.27;1.23;;;10.40;99.90;;;;;;6233076;23;20204;-91
2022/05/13 00:54:05;;;;;;;1.73;1.40;;;10.60;99.90;;;;;;6239811;23;20164;-91
2022/05/13 00:56:42;;;;;;;1.93;1.20;;;10.70;99.90;;;;;;6241712;23;20180;-91
2022/05/13 00:59:35;;;;;;;1.70;1.30;;;10.30;99.90;;;;;;6241529;23;20164;-93
2022/05/13 01:02:09;;;;;;;3.67;1.70;;;10.60;99.90;;;;;;6240623;23;20175;-92
2022/05/13 01:04:49;;;;;;;5.63;1.30;;;11.00;99.90;;;;;;6235247;23;20215;-92
2022/05/13 01:07:33;;;;;;;2.30;1.77;;;11.10;99.90;;;;;;6241266;23;20262;-93
2022/05/13 01:10:08;;;;;;;4.03;2.40;;;11.40;99.90;;;;;;6242245;23;20283;-91
2022/05/13 01:12:50;;;;;;;6.80;3.20;;;11.30;99.90;;;;;;6241704;23;20184;-92
2022/05/13 01:15:28;;;;;;;7.53;4.23;;;11.40;99.90;;;;;;6238412;23;20251;-91
2022/05/13 01:18:05;;;;;;;5.57;2.47;;;10.60;99.90;;;;;;6214029;23;20172;-91
2022/05/13 01:20:48;;;;;;;3.77;1.73;;;10.30;99.90;;;;;;6236561;23;20290;-90
2022/05/13 01:26:35;;;;;;;4.07;1.73;;;10.40;99.90;;;;;;6242602;23;20179;-90
2022/05/13 01:29:07;;;;;;;1.97;1.70;;;10.50;99.90;;;;;;6223346;23;20211;-91
2022/05/13 01:31:43;;;;;;;3.83;2.53;;;10.40;99.90;;;;;;6241992;23;20188;-89
2022/05/13 01:34:15;;;;;;;3.43;1.43;;;10.50;99.90;;;;;;6213004;23;20239;-91
2022/05/13 01:36:55;;;;;;;2.90;1.50;;;10.40;99.90;;;;;;6236287;23;20160;-90
2022/05/13 01:39:29;;;;;;;17.40;2.70;;;10.30;99.90;;;;;;6215490;23;20187;-90
2022/05/13 01:44:45;;;;;;;5.07;4.23;;;9.70;99.90;;;;;;6115848;23;20614;-90
2022/05/13 01:47:17;;;;;;;6.93;2.63;;;9.70;99.90;;;;;;6083052;23;20175;-91
2022/05/13 01:49:48;;;;;;;2.87;1.83;;;9.70;99.90;;;;;;6114144;23;20163;-91
2022/05/13 01:52:20;;;;;;;4.03;1.80;;;9.80;99.90;;;;;;6096550;23;20190;-91
2022/05/13 01:54:55;;;;;;;4.73;1.70;;;9.90;99.90;;;;;;6121280;23;20211;-90
2022/05/13 01:57:28;;;;;;;3.67;1.90;;;9.50;99.90;;;;;;6118780;23;20174;-92
2022/05/13 02:00:03;;;;;;;3.63;2.20;;;9.40;99.90;;;;;;6120938;23;20187;-90
2022/05/13 02:05:15;;;;;;;3.07;1.70;;;9.40;99.90;;;;;;6148123;23;20185;-90
2022/05/13 02:07:55;;;;;;;4.00;1.60;;;9.40;99.90;;;;;;6144267;23;20201;-91
2022/05/13 02:10:37;;;;;;;4.37;1.73;;;9.40;99.90;;;;;;6167382;23;20214;-91
2022/05/13 02:13:08;;;;;;;4.17;1.67;;;9.40;99.90;;;;;;6174752;23;20212;-91
2022/05/13 02:15:39;;;;;;;2.23;1.57;;;9.40;99.90;;;;;;6167349;23;20170;-90
2022/05/13 02:18:11;;;;;;;2.63;2.37;;;9.40;99.90;;;;;;6169677;23;20180;-90
2022/05/13 02:20:46;;;;;;;3.20;1.87;;;9.30;99.90;;;;;;6177586;23;20162;-92
2022/05/13 02:23:23;;;;;;;2.47;1.10;;;9.10;99.90;;;;;;6156652;23;20161;-89
2022/05/13 02:26:11;;;;;;;2.57;1.10;;;9.10;99.90;;;;;;6157913;23;20181;-90
2022/05/13 02:28:46;;;;;;;1.47;1.20;;;9.00;99.90;;;;;;6178067;23;20175;-87
2022/05/13 02:39:31;;;;;;;5.13;1.50;;;8.90;99.90;;;;;;6206167;23;20235;-90
2022/05/13 02:42:05;;;;;;;3.33;1.13;;;8.90;99.90;;;;;;6200116;23;20175;-90
2022/05/13 02:44:37;;;;;;;1.93;1.60;;;8.90;99.90;;;;;;6197764;23;20184;-90
2022/05/13 02:47:09;;;;;;;3.17;1.27;;;8.80;99.90;;;;;;6208681;23;20164;-90
2022/05/13 02:49:40;;;;;;;3.00;1.37;;;8.70;99.90;;;;;;6211866;23;20169;-90
2022/05/13 02:52:15;;;;;;;5.30;1.60;;;8.60;99.90;;;;;;6187051;23;20207;-90
2022/05/13 02:54:46;;;;;;;4.60;1.70;;;8.50;99.90;;;;;;6176753;23;20187;-90
2022/05/13 02:57:25;;;;;;;5.13;1.60;;;8.40;99.90;;;;;;6207732;23;20180;-89
2022/05/13 02:59:56;;;;;;;5.47;2.03;;;8.40;99.90;;;;;;6193761;23;20191;-90
2022/05/13 03:02:32;;;;;;;3.40;1.70;;;8.30;99.90;;;;;;6193686;23;20177;-89
2022/05/13 03:05:04;;;;;;;4.30;3.90;;;8.20;99.90;;;;;;6193015;23;20183;-90
2022/05/13 03:07:36;;;;;;;4.00;1.63;;;8.10;99.90;;;;;;6194016;23;20169;-91
2022/05/13 03:10:13;;;;;;;2.03;1.40;;;8.00;99.90;;;;;;6171439;23;20232;-90
2022/05/13 03:12:47;;;;;;;1.83;1.40;;;7.90;99.90;;;;;;6170278;23;20227;-90
2022/05/13 03:15:19;;;;;;;4.37;1.40;;;7.90;99.90;;;;;;6197912;23;20184;-90
2022/05/13 03:17:51;;;;;;;2.97;1.40;;;7.80;99.90;;;;;;6199898;23;20180;-91
2022/05/13 03:20:27;;;;;;;3.80;1.67;;;7.80;99.90;;;;;;6192761;23;20173;-90
2022/05/13 03:22:58;;;;;;;5.90;1.77;;;7.80;99.90;;;;;;6199085;23;20200;-91
2022/05/13 03:25:30;;;;;;;4.83;1.80;;;7.80;99.90;;;;;;6174405;23;20289;-92
2022/05/13 03:28:04;;;;;;;4.70;1.70;;;7.80;99.90;;;;;;6192647;23;20238;-90
2022/05/13 03:30:35;;;;;;;5.10;1.50;;;7.80;99.90;;;;;;6194728;23;20235;-90
2022/05/13 03:33:07;;;;;;;3.80;1.70;;;7.80;99.90;;;;;;6145085;23;20655;-91
2022/05/13 03:35:40;;;;;;;9.03;1.40;;;7.90;99.90;;;;;;6192153;23;20200;-90
2022/05/13 03:38:12;;;;;;;2.80;1.57;;;7.80;99.90;;;;;;6200783;23;20763;-90
2022/05/13 03:40:46;;;;;;;5.33;1.50;;;7.80;99.90;;;;;;6205942;23;20216;-91
2022/05/13 03:43:20;;;;;;;3.60;2.07;;;7.80;99.90;;;;;;6207736;23;20177;-90
2022/05/13 03:45:52;;;;;;;4.30;1.60;;;7.80;99.90;;;;;;6210478;23;20172;-90
2022/05/13 03:48:35;;;;;;;2.97;1.50;;;7.90;99.90;;;;;;6210087;23;20201;-91
2022/05/13 03:51:07;;;;;;;2.10;1.60;;;7.80;99.90;;;;;;6208106;23;20189;-90
2022/05/13 03:53:41;;;;;;;5.57;1.77;;;7.80;99.90;;;;;;6206426;23;20280;-90
2022/05/13 03:56:13;;;;;;;3.03;1.50;;;7.80;99.90;;;;;;6207256;23;20208;-90
2022/05/13 03:58:46;;;;;;;3.97;1.50;;;7.80;99.90;;;;;;6198152;23;20173;-90
2022/05/13 04:01:17;;;;;;;3.40;1.40;;;7.80;99.90;;;;;;6190860;23;20632;-91
2022/05/13 04:03:50;;;;;;;3.57;1.30;;;7.70;99.90;;;;;;6191939;23;20177;-90
2022/05/13 04:09:10;;;;;;;2.10;1.10;;;7.60;99.90;;;;;;6190192;23;20188;-90
2022/05/13 04:16:04;;;;;;;4.10;1.60;;;7.60;99.90;;;;;;6194855;23;20173;-91
2022/05/13 04:17:28;;;;;;;3.07;1.27;;;7.40;99.90;;;;;;6194026;23;20205;-90
2022/05/13 04:19:59;;;;;;;2.80;1.27;;;7.40;99.90;;;;;;6173318;23;20208;-90
2022/05/13 04:22:32;;;;;;;4.07;1.30;;;7.40;99.90;;;;;;6191285;23;20192;-90
2022/05/13 04:25:03;;;;;;;2.33;1.40;;;7.40;99.90;;;;;;6192178;23;20183;-91
2022/05/13 04:27:34;;;;;;;2.07;1.13;;;7.30;99.90;;;;;;6191409;23;20176;-89
2022/05/13 04:30:09;;;;;;;2.63;1.60;;;7.40;99.90;;;;;;6190087;23;20527;-90
2022/05/13 04:32:43;;;;;;;4.30;1.20;;;7.30;99.90;;;;;;6191271;23;20180;-90
2022/05/13 04:35:16;;;;;;;3.83;1.47;;;7.30;99.90;;;;;;6192102;23;20168;-90
2022/05/13 04:37:48;;;;;;;5.67;1.17;;;7.20;99.90;;;;;;6192329;23;20249;-91
2022/05/13 04:40:19;;;;;;;3.17;1.13;;;7.20;99.90;;;;;;6191282;23;20181;-91
2022/05/13 04:42:51;;;;;;;2.97;1.33;;;7.20;99.90;;;;;;6191782;23;20173;-90
2022/05/13 04:45:27;;;;;;;5.07;1.20;;;7.20;99.90;;;;;;6166237;23;20232;-90
2022/05/13 04:48:18;;;;;;;3.90;1.30;;;7.20;99.90;;;;;;6191051;23;20200;-89
2022/05/13 04:50:52;;;;;;;4.13;1.60;;;7.20;99.90;;;;;;6193065;23;20193;-90
2022/05/13 04:53:26;;;;;;;2.50;1.63;;;7.30;99.90;;;;;;6192437;23;20309;-89
2022/05/13 04:55:58;;;;;;;1.70;1.30;;;7.30;99.90;;;;;;6193834;23;20596;-89
2022/05/13 04:58:29;;;;;;;3.00;1.30;;;7.40;99.90;;;;;;6172524;23;20172;-91
2022/05/13 05:01:04;;;;;;;3.77;1.80;;;7.40;99.90;;;;;;6210348;23;20183;-91
2022/05/13 05:03:45;;;;;;;1.73;1.17;;;7.50;99.90;;;;;;6208697;23;20456;-90
2022/05/13 05:06:17;;;;;;;2.80;1.53;;;7.40;99.90;;;;;;6199187;23;20251;-90
2022/05/13 05:08:50;;;;;;;3.33;1.43;;;7.50;99.90;;;;;;6192928;23;20177;-90
2022/05/13 05:11:21;;;;;;;4.70;1.57;;;7.50;99.90;;;;;;6196371;23;20187;-91
2022/05/13 05:13:55;;;;;;;3.60;1.40;;;7.50;99.90;;;;;;6201007;23;20200;-90
2022/05/13 05:16:29;;;;;;;1.70;1.23;;;7.50;99.90;;;;;;6201059;23;20234;-91
2022/05/13 05:19:12;;;;;;;1.80;1.17;;;7.40;99.90;;;;;;6192475;23;20609;-90
2022/05/13 05:21:43;;;;;;;2.37;1.30;;;7.30;99.90;;;;;;6194972;23;20183;-91
2022/05/13 05:24:14;;;;;;;2.33;1.20;;;7.50;99.90;;;;;;6205860;23;20188;-90
2022/05/13 05:26:45;;;;;;;3.73;1.50;;;7.50;99.90;;;;;;6193556;23;20208;-91
2022/05/13 05:29:17;;;;;;;3.33;1.53;;;7.40;99.90;;;;;;6189657;23;20208;-91
2022/05/13 05:31:51;;;;;;;2.50;1.30;;;7.30;99.90;;;;;;6165844;23;20166;-90
2022/05/13 05:34:23;;;;;;;3.63;1.30;;;7.20;99.90;;;;;;6190501;23;20208;-90
2022/05/13 05:36:54;;;;;;;2.00;1.27;;;7.20;99.90;;;;;;6190804;23;20171;-90
2022/05/13 05:39:25;;;;;;;1.80;1.10;;;7.20;99.90;;;;;;6162947;23;20185;-90
2022/05/13 05:41:58;;;;;;;4.27;1.40;;;7.00;99.90;;;;;;6165129;23;20493;-90
2022/05/13 05:44:30;;;;;;;2.30;1.10;;;7.00;99.90;;;;;;6168151;23;20177;-91
2022/05/13 05:47:07;;;;;;;2.90;1.17;;;7.00;99.90;;;;;;6141868;23;20179;-91
2022/05/13 05:49:58;;;;;;;2.73;1.30;;;7.00;99.90;;;;;;6194705;23;20197;-91
2022/05/13 05:59:26;;;;;;;3.73;1.40;;;7.10;99.90;;;;;;6179664;23;20203;-92
2022/05/13 06:02:30;;;;;;;2.83;1.20;;;7.10;99.90;;;;;;6180738;23;20244;-90
2022/05/13 06:05:25;;;;;;;2.90;1.20;;;7.10;99.90;;;;;;6161714;23;20213;-93
2022/05/13 06:13:27;;;;;;;6.50;1.30;;;6.90;99.90;;;;;;6180398;23;20190;-91
2022/05/13 06:45:55;;;;;;;1.57;1.00;;;6.80;99.90;;;;;;6133516;23;20196;-90
2022/05/13 06:48:27;;;;;;;3.97;1.33;;;6.80;99.90;;;;;;6132044;23;20190;-90
2022/05/13 06:50:58;;;;;;;1.70;1.17;;;6.90;99.90;;;;;;6133170;23;20561;-90
2022/05/13 06:53:29;;;;;;;2.07;1.30;;;6.90;99.90;;;;;;6132363;23;20231;-90
2022/05/13 06:56:01;;;;;;;3.07;1.10;;;6.70;99.90;;;;;;6131580;23;20197;-91
2022/05/13 06:58:32;;;;;;;3.23;1.23;;;6.80;99.90;;;;;;6136597;23;20209;-91
2022/05/13 07:01:05;;;;;;;3.80;1.20;;;6.60;99.90;;;;;;6132611;23;20174;-90
2022/05/13 07:03:37;;;;;;;5.67;1.27;;;6.60;99.90;;;;;;6135239;23;20171;-90
2022/05/13 07:06:08;;;;;;;2.37;1.10;;;6.60;99.90;;;;;;6133225;23;20568;-90
2022/05/13 07:08:40;;;;;;;2.40;0.97;;;6.60;99.90;;;;;;6132229;23;20235;-90
2022/05/13 07:11:12;;;;;;;3.60;1.10;;;6.60;99.90;;;;;;6142055;23;20178;-91
2022/05/13 07:13:44;;;;;;;2.83;1.27;;;6.50;99.90;;;;;;6120160;23;20178;-91
2022/05/13 07:16:19;;;;;;;3.27;1.63;;;6.50;99.90;;;;;;6120610;23;20178;-90
2022/05/13 07:18:50;;;;;;;3.73;1.50;;;6.50;99.90;;;;;;6131897;23;20237;-89
2022/05/13 07:21:21;;;;;;;2.87;1.30;;;6.50;99.90;;;;;;6133411;23;20242;-90
2022/05/13 07:23:52;;;;;;;3.10;1.30;;;6.40;99.90;;;;;;6133615;23;20166;-90
2022/05/13 07:26:23;;;;;;;1.37;0.90;;;6.30;99.90;;;;;;6131137;23;20198;-90
2022/05/13 07:28:54;;;;;;;2.83;0.97;;;6.30;99.90;;;;;;6132933;23;20237;-89
2022/05/13 07:31:27;;;;;;;1.67;1.07;;;6.20;99.90;;;;;;6136435;23;20178;-90
2022/05/13 07:33:59;;;;;;;4.53;1.30;;;6.20;99.90;;;;;;6134647;23;20230;-90
2022/05/13 07:36:30;;;;;;;1.53;1.03;;;6.10;99.90;;;;;;6132613;23;20182;-89
2022/05/13 07:41:49;;;;;;;4.97;1.00;;;6.00;99.90;;;;;;6134203;23;20246;-91
2022/05/13 07:44:20;;;;;;;3.40;0.93;;;5.80;99.90;;;;;;6118553;23;20269;-90
2022/05/13 07:46:54;;;;;;;1.00;0.90;;;5.80;99.90;;;;;;6161130;23;20254;-89
2022/05/13 07:49:26;;;;;;;1.67;1.07;;;5.70;99.90;;;;;;6161057;23;20181;-90
2022/05/13 07:51:59;;;;;;;6.80;1.17;;;5.70;99.90;;;;;;6162444;23;20206;-90
2022/05/13 07:54:31;;;;;;;1.83;0.70;;;5.70;99.90;;;;;;6163719;23;20200;-91
2022/05/13 07:57:03;;;;;;;4.30;0.90;;;5.60;99.90;;;;;;6179361;23;20172;-91
2022/05/13 08:00:24;;;;;;;1.87;1.30;;;5.60;99.90;;;;;;6178815;23;20197;-91
2022/05/13 08:02:29;;;;;;;2.60;1.57;;;5.60;99.90;;;;;;6167475;23;20178;-91
2022/05/13 08:45:33;;;;;;;2.73;1.40;;;5.60;99.90;;;;;;6206166;23;20227;-90
2022/05/13 08:48:09;;;;;;;4.67;1.37;;;5.60;99.90;;;;;;6220266;23;20188;-90
2022/05/13 08:50:51;;;;;;;2.03;1.10;;;5.70;99.90;;;;;;6221333;23;20234;-91
2022/05/13 08:53:30;;;;;;;3.90;1.40;;;5.70;99.90;;;;;;6221867;23;20215;-90
2022/05/13 08:56:07;;;;;;;3.60;1.57;;;5.70;99.90;;;;;;6221918;23;20196;-90
2022/05/13 08:58:45;;;;;;;4.97;1.40;;;5.60;99.90;;;;;;6194451;23;20219;-90
2022/05/13 09:01:26;;;;;;;3.37;1.40;;;5.70;99.90;;;;;;6221412;23;20164;-89
2022/05/13 09:04:03;;;;;;;6.80;1.57;;;5.70;99.90;;;;;;6221241;23;20169;-90
2022/05/13 09:06:40;;;;;;;3.40;1.50;;;5.70;99.90;;;;;;6221552;23;20176;-91
2022/05/13 09:09:13;;;;;;;1.97;1.37;;;5.70;99.90;;;;;;6194963;23;20219;-90
2022/05/13 09:11:52;;;;;;;5.40;1.23;;;5.70;99.90;;;;;;6221755;23;20199;-90
2022/05/13 09:14:31;;;;;;;4.63;1.60;;;5.70;99.90;;;;;;6225821;23;20195;-89
2022/05/13 09:17:19;;;;;;;4.03;1.50;;;5.70;99.90;;;;;;6220340;23;20176;-90
2022/05/13 09:19:56;;;;;;;3.00;1.37;;;5.60;99.90;;;;;;6219580;23;20516;-91
2022/05/13 09:22:36;;;;;;;5.23;1.80;;;5.70;99.90;;;;;;6226708;23;20242;-92
2022/05/13 09:25:09;;;;;;;5.03;1.83;;;5.70;99.90;;;;;;6240554;23;20167;-90
2022/05/13 09:27:51;;;;;;;4.80;1.63;;;5.60;99.90;;;;;;6239669;23;20176;-91
2022/05/13 09:30:28;;;;;;;4.73;1.60;;;5.60;99.90;;;;;;6196982;23;20472;-91
2022/05/13 09:33:20;;;;;;;4.77;1.50;;;5.70;99.90;;;;;;6222125;23;20173;-91
2022/05/13 09:35:54;;;;;;;3.07;1.67;;;5.60;99.90;;;;;;6221534;23;20235;-90
2022/05/13 09:38:27;;;;;;;3.83;1.57;;;5.60;99.90;;;;;;6224176;23;20180;-90
2022/05/13 09:41:13;;;;;;;4.80;1.80;;;5.60;99.90;;;;;;6223695;23;20172;-91
2022/05/13 09:43:54;;;;;;;5.20;1.60;;;5.50;99.90;;;;;;6223987;23;20183;-91
2022/05/13 09:46:31;;;;;;;2.20;1.40;;;5.50;99.90;;;;;;6224924;23;20172;-91
2022/05/13 09:49:12;;;;;;;4.50;1.80;;;5.40;99.90;;;;;;6224682;23;20175;-91
2022/05/13 09:51:56;;;;;;;4.23;1.43;;;5.40;99.90;;;;;;6222217;23;20390;-92
2022/05/13 09:54:31;;;;;;;6.13;2.70;;;5.40;99.90;;;;;;6223174;23;20164;-94
2022/05/13 09:57:11;;;;;;;3.73;1.23;;;5.30;99.90;;;;;;6219566;23;20204;-91
2022/05/13 09:59:47;;;;;;;6.10;1.60;;;5.30;99.90;;;;;;6221581;23;20176;-91
2022/05/13 10:02:24;;;;;;;4.00;1.67;;;5.30;99.90;;;;;;6225054;23;20534;-91
2022/05/13 10:05:15;;;;;;;7.27;1.40;;;5.30;99.90;;;;;;6222733;23;20169;-90
2022/05/13 10:07:58;;;;;;;3.87;1.67;;;5.20;99.90;;;;;;6221557;23;20172;-91
2022/05/13 10:16:14;;;;;;;3.87;1.53;;;5.10;99.90;;;;;;6223089;23;20192;-92
2022/05/13 10:18:52;;;;;;;2.80;1.30;;;5.00;99.90;;;;;;6221632;23;20346;-92
2022/05/13 10:21:26;;;;;;;5.27;1.47;;;5.00;99.90;;;;;;6221946;23;20164;-92
2022/05/13 10:24:02;;;;;;;4.67;1.97;;;5.00;99.90;;;;;;6221204;23;20198;-92
2022/05/13 10:26:37;;;;;;;4.40;1.33;;;5.00;99.90;;;;;;6227103;23;20262;-93
2022/05/13 10:29:14;;;;;;;4.10;1.80;;;4.90;99.90;;;;;;6221378;23;20512;-92
2022/05/13 10:31:49;;;;;;;6.20;1.80;;;4.90;99.90;;;;;;6223035;23;20227;-92
2022/05/13 10:34:26;;;;;;;3.03;1.37;;;4.90;99.90;;;;;;6222298;23;20252;-92
2022/05/13 10:37:04;;;;;;;4.30;1.90;;;4.90;99.90;;;;;;6221955;23;20196;-91
2022/05/13 10:39:44;;;;;;;3.53;1.50;;;4.80;99.90;;;;;;6220482;23;20176;-92
2022/05/13 10:42:21;;;;;;;2.53;1.40;;;4.80;99.90;;;;;;6222130;23;20176;-92
2022/05/13 10:44:58;;;;;;;7.60;1.83;;;4.80;99.90;;;;;;6221998;23;20211;-92
2022/05/13 10:47:35;;;;;;;4.10;1.33;;;4.80;99.90;;;;;;6221074;23;20172;-92
2022/05/13 10:50:12;;;;;;;5.60;1.50;;;4.80;99.90;;;;;;6222103;23;20506;-92
2022/05/13 10:52:52;;;;;;;2.83;1.33;;;4.90;99.90;;;;;;6221701;23;20238;-93
2022/05/13 10:55:35;;;;;;;3.93;1.30;;;4.90;99.90;;;;;;6221416;23;20429;-93
2022/05/13 10:58:24;;;;;;;4.67;1.50;;;4.80;99.90;;;;;;6220060;23;20180;-92
2022/05/13 11:01:02;;;;;;;2.53;1.30;;;4.90;99.90;;;;;;6221043;23;20180;-92
2022/05/13 11:57:44;;;;;;;4.17;1.70;;;4.70;99.90;;;;;;6206019;23;20244;-91
2022/05/13 12:00:41;;;;;;;3.53;1.53;;;4.80;99.90;;;;;;6206509;23;20168;-91
2022/05/13 12:06:09;;;;;;;2.13;0.97;;;4.80;99.90;;;;;;6199805;23;20177;-91
2022/05/13 12:08:57;;;;;;;2.90;1.33;;;4.80;99.90;;;;;;6204005;23;20188;-90
2022/05/13 12:11:46;;;;;;;3.13;1.20;;;4.80;99.90;;;;;;6200025;23;20176;-90
2022/05/13 12:14:29;;;;;;;4.37;1.33;;;4.80;99.90;;;;;;6206966;23;20181;-90
2022/05/13 12:17:11;;;;;;;3.73;1.37;;;4.80;99.90;;;;;;6174279;23;20208;-90
2022/05/13 12:19:54;;;;;;;5.27;1.40;;;4.80;99.90;;;;;;6220906;23;20596;-90
2022/05/13 12:22:41;;;;;;;2.00;1.10;;;4.70;99.90;;;;;;6202701;23;20176;-92
2022/05/13 12:25:35;;;;;;;4.60;1.43;;;4.60;99.90;;;;;;6228147;23;20180;-90
2022/05/13 12:28:10;;;;;;;6.00;1.33;;;4.60;99.90;;;;;;6219932;23;20185;-90
2022/05/13 12:30:44;;;;;;;4.80;1.37;;;4.60;99.90;;;;;;6220574;23;20187;-90
2022/05/13 12:33:39;;;;;;;6.67;1.63;;;4.60;99.90;;;;;;6221073;23;20176;-90
2022/05/13 12:39:22;;;;;;;3.43;1.00;;;4.50;99.90;;;;;;6220042;23;20191;-90
2022/05/13 12:42:09;;;;;;;2.53;1.27;;;4.50;99.90;;;;;;6220872;23;20183;-89
2022/05/13 12:44:58;;;;;;;2.73;1.00;;;4.50;99.90;;;;;;6221538;23;20181;-90
2022/05/13 12:47:33;;;;;;;1.30;1.03;;;4.50;99.90;;;;;;6220553;23;20184;-89
2022/05/13 12:50:23;;;;;;;4.03;1.23;;;4.50;99.90;;;;;;6218740;23;20186;-90
2022/05/13 12:52:54;;;;;;;3.17;1.57;;;4.50;99.90;;;;;;6221786;23;20180;-89
2022/05/13 12:55:46;;;;;;;3.67;1.30;;;4.50;99.90;;;;;;6221519;23;20200;-90
2022/05/13 12:58:21;;;;;;;4.87;1.50;;;4.50;99.90;;;;;;6220778;23;20204;-90
2022/05/13 13:00:54;;;;;;;3.23;1.30;;;4.50;99.90;;;;;;6221893;23;20231;-90
2022/05/13 13:03:28;;;;;;;3.50;1.53;;;4.50;99.90;;;;;;6221771;23;20192;-89
2022/05/13 13:06:07;;;;;;;2.97;1.37;;;4.50;99.90;;;;;;6221503;23;20176;-90
2022/05/13 13:08:40;;;;;;;2.17;1.10;;;4.60;99.90;;;;;;6221588;23;20169;-89
2022/05/13 13:11:32;;;;;;;4.10;1.30;;;4.60;99.90;;;;;;6197172;23;20200;-90
2022/05/13 13:14:18;;;;;;;3.53;1.70;;;4.60;99.90;;;;;;6221747;23;20192;-90
2022/05/13 13:16:54;;;;;;;4.63;1.73;;;4.70;99.90;;;;;;6224092;23;20239;-90
2022/05/13 13:19:32;;;;;;;2.97;1.30;;;4.70;99.90;;;;;;6222667;23;20199;-91
2022/05/13 13:22:05;;;;;;;2.57;1.77;;;4.80;99.90;;;;;;6228000;23;20172;-90
2022/05/13 13:24:39;;;;;;;3.83;1.37;;;4.90;99.90;;;;;;6228373;23;20179;-93
2022/05/13 13:27:17;;;;;;;4.13;1.30;;;5.00;99.90;;;;;;6237321;23;20206;-93
2022/05/13 13:29:50;;;;;;;2.77;1.10;;;5.00;99.90;;;;;;6237090;23;20195;-92
2022/05/13 13:32:24;;;;;;;5.63;1.50;;;5.00;99.90;;;;;;6215631;23;20207;-92
2022/05/13 13:34:59;;;;;;;5.80;1.23;;;5.00;99.90;;;;;;6242141;23;20206;-92
2022/05/13 13:37:34;;;;;;;2.43;1.17;;;5.10;99.90;;;;;;6242345;23;20210;-92
2022/05/13 13:40:17;;;;;;;2.60;1.13;;;5.10;99.90;;;;;;6243689;23;20190;-90
2022/05/13 13:42:48;;;;;;;5.80;1.30;;;5.20;99.90;;;;;;6241703;23;20179;-92
2022/05/13 13:45:24;;;;;;;2.17;0.90;;;5.20;99.90;;;;;;6236791;23;20164;-90
2022/05/13 13:47:57;;;;;;;4.00;1.20;;;5.20;99.90;;;;;;6235649;23;20164;-91
2022/05/13 13:50:33;;;;;;;3.53;1.53;;;5.20;99.90;;;;;;6243730;23;20168;-92
2022/05/13 13:53:05;;;;;;;5.97;1.20;;;5.20;99.90;;;;;;6243805;23;20215;-92
2022/05/13 13:55:39;;;;;;;5.27;1.23;;;5.20;99.90;;;;;;6234226;23;20631;-90
2022/05/13 13:58:50;;;;;;;2.77;1.10;;;5.20;99.90;;;;;;6225370;23;20203;-90
2022/05/13 14:01:25;;;;;;;1.43;1.10;;;5.20;99.90;;;;;;6203572;23;20245;-89
2022/05/13 14:04:10;;;;;;;4.53;1.00;;;5.30;99.90;;;;;;6203117;23;20165;-89
2022/05/13 14:06:45;;;;;;;6.90;1.23;;;5.40;99.90;;;;;;6225299;23;20161;-90
2022/05/13 14:09:21;;;;;;;3.67;1.03;;;5.50;99.90;;;;;;6237212;23;20183;-90
2022/05/13 14:11:55;;;;;;;7.20;1.80;;;5.60;99.90;;;;;;6236509;23;20175;-90
2022/05/13 14:14:52;;;;;;;7.63;1.23;;;5.70;99.90;;;;;;6226197;23;20226;-90
2022/05/13 14:17:26;;;;;;;3.27;1.27;;;5.80;99.90;;;;;;6227390;23;20230;-90
2022/05/13 14:20:06;;;;;;;2.40;1.10;;;5.90;99.90;;;;;;6232661;23;20176;-90
2022/05/13 14:23:14;;;;;;;5.03;1.40;;;6.00;99.90;;;;;;6233466;23;20615;-91
2022/05/13 14:25:54;;;;;;;2.83;1.17;;;6.20;99.90;;;;;;6239333;23;20184;-89
2022/05/13 14:28:28;;;;;;;1.67;1.30;;;6.20;99.90;;;;;;6242758;23;20180;-89
2022/05/13 14:31:11;;;;;;;3.00;1.20;;;6.30;99.90;;;;;;6219326;23;20168;-88
2022/05/13 14:33:47;;;;;;;3.93;1.40;;;6.30;99.90;;;;;;6242881;23;20219;-90
2022/05/13 14:36:21;;;;;;;3.33;1.27;;;6.30;99.90;;;;;;6243559;23;20193;-89
2022/05/13 14:50:02;;;;;;;4.57;1.30;;;7.20;99.90;;;;;;6232501;23;20211;-90
2022/05/13 14:52:38;;;;;;;4.17;1.20;;;7.80;99.90;;;;;;6242237;23;20183;-90
2022/05/13 14:55:25;;;;;;;5.07;1.67;;;7.80;99.90;;;;;;6242410;23;20172;-91
2022/05/13 14:57:57;;;;;;;5.90;1.53;;;7.70;99.90;;;;;;6242775;23;20196;-91
2022/05/13 15:00:31;;;;;;;4.47;1.37;;;7.80;99.90;;;;;;6242487;23;20173;-90
2022/05/13 15:03:06;;;;;;;5.83;1.33;;;8.20;99.90;;;;;;6215756;23;20173;-90
2022/05/13 15:05:48;;;;;;;3.30;1.07;;;8.50;99.90;;;;;;6240861;23;20195;-91
2022/05/13 15:08:48;;;;;;;4.40;1.20;;;8.60;99.90;;;;;;6241318;23;20176;-91
2022/05/13 15:14:04;;;;;;;4.70;1.40;;;8.20;99.90;;;;;;6201376;23;20311;-91
2022/05/13 15:16:35;;;;;;;5.63;1.30;;;7.90;99.90;;;;;;6208052;23;20181;-92
2022/05/13 15:19:08;;;;;;;1.97;1.23;;;7.80;99.90;;;;;;6203928;23;20220;-91
2022/05/13 15:21:42;;;;;;;3.93;1.23;;;8.00;99.90;;;;;;6207379;23;20183;-91
2022/05/13 15:24:17;;;;;;;4.40;1.40;;;8.20;99.90;;;;;;6208649;23;20184;-90
2022/05/13 15:26:51;;;;;;;2.03;1.03;;;8.40;99.90;;;;;;6206464;23;20183;-92
2022/05/13 15:29:24;;;;;;;3.77;1.20;;;8.60;99.90;;;;;;6207564;23;20177;-90
2022/05/13 15:40:15;;;;;;;3.67;1.40;;;8.40;99.90;;;;;;6212937;23;20258;-90
2022/05/13 15:42:49;;;;;;;6.90;1.30;;;8.40;99.90;;;;;;6227721;23;20172;-90
2022/05/13 15:45:23;;;;;;;6.07;1.27;;;8.30;99.90;;;;;;6213107;23;20224;-90
2022/05/13 15:47:56;;;;;;;6.13;1.60;;;8.50;99.90;;;;;;6213425;23;20165;-90
2022/05/13 15:53:18;;;;;;;4.73;1.67;;;8.30;99.90;;;;;;6235522;23;20176;-91
2022/05/13 15:55:55;;;;;;;4.57;1.20;;;8.30;99.90;;;;;;6231492;23;20243;-91
2022/05/13 15:58:35;;;;;;;4.00;1.40;;;8.30;99.90;;;;;;6223666;23;20211;-91
2022/05/13 16:01:33;;;;;;;2.63;1.40;;;8.30;99.90;;;;;;6240265;23;20221;-91
2022/05/13 16:04:04;;;;;;;5.23;1.50;;;8.40;99.90;;;;;;6241368;23;20166;-91
2022/05/13 16:06:36;;;;;;;4.77;1.50;;;8.70;99.90;;;;;;6241171;23;20180;-91
2022/05/13 16:09:07;;;;;;;4.27;1.40;;;8.80;99.90;;;;;;6215786;23;20199;-90
2022/05/13 16:11:42;;;;;;;3.37;1.50;;;8.40;99.90;;;;;;6234337;23;20227;-91
2022/05/13 16:14:17;;;;;;;2.87;1.83;;;8.40;99.90;;;;;;6226818;23;20210;-91
2022/05/13 16:16:51;;;;;;;2.50;1.40;;;8.30;99.90;;;;;;6200086;23;20192;-91
2022/05/13 16:19:32;;;;;;;5.23;1.60;;;8.30;99.90;;;;;;6230015;23;20204;-90
2022/05/13 16:22:11;;;;;;;3.83;1.63;;;8.30;99.90;;;;;;6214634;23;20164;-91
2022/05/13 16:24:45;;;;;;;3.33;1.33;;;8.30;99.90;;;;;;6237923;23;20224;-91
2022/05/13 16:27:26;;;;;;;9.63;1.63;;;8.40;99.90;;;;;;6236982;23;20172;-91
2022/05/13 16:29:58;;;;;;;4.43;1.30;;;8.40;99.90;;;;;;6238545;23;20179;-90
2022/05/13 16:32:29;;;;;;;9.47;1.90;;;8.60;99.90;;;;;;6237979;23;20177;-90
2022/05/13 16:35:01;;;;;;;2.77;1.07;;;8.80;99.90;;;;;;6217789;23;20168;-90
2022/05/13 16:37:45;;;;;;;3.00;1.00;;;9.00;99.90;;;;;;6238598;23;20176;-92
2022/05/13 16:40:19;;;;;;;3.10;1.20;;;9.10;99.90;;;;;;6238480;23;20318;-90
2022/05/13 16:42:55;;;;;;;2.07;1.10;;;9.20;99.90;;;;;;6236576;23;20195;-90
2022/05/13 16:45:27;;;;;;;7.47;1.30;;;9.40;99.90;;;;;;6236758;23;20180;-89
2022/05/13 16:47:59;;;;;;;2.87;1.17;;;9.40;99.90;;;;;;6233138;23;20168;-89
2022/05/13 16:50:35;;;;;;;4.10;1.23;;;9.60;99.90;;;;;;6237864;23;20203;-89
2022/05/13 16:53:09;;;;;;;1.73;0.90;;;9.50;99.90;;;;;;6238191;23;20176;-88
2022/05/13 16:55:46;;;;;;;2.40;1.20;;;9.50;99.90;;;;;;6237285;23;20211;-90
2022/05/13 16:58:21;;;;;;;6.83;1.93;;;9.30;99.90;;;;;;6233313;23;20200;-90
2022/05/13 17:00:54;;;;;;;1.87;0.90;;;9.30;99.90;;;;;;6199783;23;20179;-89
2022/05/13 17:03:26;;;;;;;3.57;1.10;;;9.40;99.90;;;;;;6222686;23;20175;-90
2022/05/13 17:05:58;;;;;;;3.50;1.20;;;9.30;99.90;;;;;;6195945;23;20180;-90